Time;durP1;ratioP1;P1;durP2;ratioP2;P2;SDS_P1;SDS_P2;PMS_P1;PMS_P2;Temp;Humidity;BMP_temperature;BMP_pressure;BME280_temperature;BME280_humidity;BME280_pressure;Samples;Min_cycle;Max_cycle;Signal;HPM_P1;HPM_P2
2021/03/22 00:02:06;;;;;;;0.60;0.60;;;4.40;99.90;;;;;;6245836;23;20179;-83
2021/03/22 00:04:32;;;;;;;0.50;0.50;;;3.80;99.90;;;;;;6246949;23;20176;-82
2021/03/22 00:06:59;;;;;;;0.60;0.60;;;2.10;99.90;;;;;;6244893;23;20210;-82
2021/03/22 00:09:26;;;;;;;0.60;0.60;;;2.60;99.90;;;;;;6240717;23;20405;-82
2021/03/22 00:11:52;;;;;;;0.60;0.60;;;2.40;99.90;;;;;;6239808;23;20187;-83
2021/03/22 00:14:18;;;;;;;0.60;0.60;;;2.50;99.90;;;;;;6240087;23;20175;-82
2021/03/22 00:16:46;;;;;;;0.60;0.60;;;2.60;99.90;;;;;;6239385;23;20738;-82
2021/03/22 00:19:12;;;;;;;0.60;0.60;;;2.60;99.90;;;;;;6239163;23;20640;-82
2021/03/22 00:21:38;;;;;;;0.60;0.60;;;2.60;99.90;;;;;;6239482;23;20246;-82
2021/03/22 00:24:04;;;;;;;0.60;0.60;;;2.60;99.90;;;;;;6239769;23;20636;-82
2021/03/22 00:26:32;;;;;;;0.60;0.60;;;2.70;99.90;;;;;;6239770;23;20172;-82
2021/03/22 00:28:59;;;;;;;0.55;0.55;;;2.60;99.90;;;;;;6238957;23;20176;-82
2021/03/22 00:31:25;;;;;;;0.60;0.60;;;2.60;99.90;;;;;;6241308;23;20206;-82
2021/03/22 00:33:51;;;;;;;0.50;0.50;;;2.60;99.90;;;;;;6241776;23;20176;-82
2021/03/22 00:36:21;;;;;;;0.60;0.60;;;2.60;99.90;;;;;;6243050;23;20242;-83
2021/03/22 00:38:49;;;;;;;0.50;0.50;;;2.50;99.90;;;;;;6242464;23;20186;-83
2021/03/22 00:41:15;;;;;;;0.60;0.60;;;2.50;99.90;;;;;;6241856;23;20184;-83
2021/03/22 00:43:42;;;;;;;0.50;0.50;;;2.40;99.90;;;;;;6241931;23;20701;-82
2021/03/22 00:46:09;;;;;;;0.60;0.60;;;4.00;99.90;;;;;;6242332;23;20172;-81
2021/03/22 00:48:36;;;;;;;0.50;0.50;;;2.30;99.90;;;;;;6241742;23;20187;-82
2021/03/22 00:51:06;;;;;;;0.60;0.60;;;2.40;99.90;;;;;;6241432;23;20261;-81
2021/03/22 00:53:32;;;;;;;0.60;0.60;;;2.30;99.90;;;;;;6241699;23;20176;-81
2021/03/22 00:55:58;;;;;;;0.60;0.60;;;2.30;99.90;;;;;;6240778;23;20739;-82
2021/03/22 00:58:24;;;;;;;0.60;0.60;;;2.20;99.90;;;;;;6241866;23;20184;-80
2021/03/22 01:00:56;;;;;;;0.50;0.50;;;2.20;99.90;;;;;;6241862;23;20258;-82
2021/03/22 01:03:24;;;;;;;0.60;0.60;;;2.10;99.90;;;;;;6241303;23;20191;-82
2021/03/22 01:05:51;;;;;;;0.60;0.60;;;2.10;99.90;;;;;;6241169;23;20283;-81
2021/03/22 01:08:18;;;;;;;0.60;0.60;;;2.10;99.90;;;;;;6241267;23;20628;-81
2021/03/22 01:10:47;;;;;;;0.57;0.57;;;2.10;99.90;;;;;;6241014;23;20175;-82
2021/03/22 01:13:16;;;;;;;0.60;0.60;;;2.00;99.90;;;;;;6241076;23;20183;-81
2021/03/22 01:15:42;;;;;;;0.57;0.57;;;2.00;99.90;;;;;;6241103;23;20199;-82
2021/03/22 01:18:10;;;;;;;0.50;0.50;;;2.00;99.90;;;;;;6240872;23;20180;-82
2021/03/22 01:20:39;;;;;;;0.60;0.60;;;1.90;99.90;;;;;;6241368;23;20234;-82
2021/03/22 01:23:06;;;;;;;0.50;0.50;;;1.90;99.90;;;;;;6241149;23;20180;-82
2021/03/22 01:25:32;;;;;;;0.60;0.60;;;1.90;99.90;;;;;;6241700;23;20182;-82
2021/03/22 01:27:59;;;;;;;0.50;0.50;;;1.80;99.90;;;;;;6240905;23;20182;-81
2021/03/22 01:30:30;;;;;;;0.50;0.50;;;1.80;99.90;;;;;;6235455;23;20518;-81
2021/03/22 01:32:58;;;;;;;0.50;0.50;;;1.80;99.90;;;;;;6239394;23;20247;-81
2021/03/22 01:35:25;;;;;;;0.50;0.50;;;1.80;99.90;;;;;;6239173;23;20196;-81
2021/03/22 01:37:51;;;;;;;0.50;0.50;;;1.70;99.90;;;;;;6239898;23;20175;-81
2021/03/22 01:40:39;;;;;;;0.60;0.60;;;1.70;99.90;;;;;;6239919;22;20210;-81
2021/03/22 01:43:12;;;;;;;0.60;0.60;;;1.60;99.90;;;;;;6239941;23;20165;-81
2021/03/22 01:45:39;;;;;;;0.52;0.52;;;1.60;99.90;;;;;;6239151;23;20160;-82
2021/03/22 01:48:05;;;;;;;0.60;0.60;;;1.60;99.90;;;;;;6239981;23;20636;-81
2021/03/22 01:50:32;;;;;;;0.55;0.55;;;1.60;99.90;;;;;;6239564;23;20199;-81
2021/03/22 01:53:01;;;;;;;0.50;0.50;;;1.50;99.90;;;;;;6239521;23;20186;-81
2021/03/22 01:55:28;;;;;;;0.52;0.52;;;1.50;99.90;;;;;;6239186;23;20199;-81
2021/03/22 01:57:54;;;;;;;0.50;0.50;;;1.60;99.90;;;;;;6239999;23;20175;-82
2021/03/22 02:00:26;;;;;;;0.50;0.50;;;1.60;99.90;;;;;;6241132;23;20183;-82
2021/03/22 02:02:57;;;;;;;0.50;0.50;;;1.60;99.90;;;;;;6239640;22;20160;-83
2021/03/22 02:05:27;;;;;;;0.55;0.55;;;1.60;99.90;;;;;;6239587;23;20179;-82
2021/03/22 02:08:01;;;;;;;0.60;0.60;;;1.50;99.90;;;;;;6239441;23;20518;-82
2021/03/22 02:10:28;;;;;;;0.60;0.60;;;1.50;99.90;;;;;;6239315;23;20225;-82
2021/03/22 02:12:54;;;;;;;0.55;0.55;;;1.50;99.90;;;;;;6239484;23;20182;-81
2021/03/22 02:15:21;;;;;;;0.60;0.60;;;1.50;99.90;;;;;;6239655;23;20192;-82
2021/03/22 02:18:01;;;;;;;0.50;0.50;;;1.50;99.90;;;;;;6239988;23;20175;-82
2021/03/22 02:21:06;;;;;;;0.50;0.50;;;1.50;99.90;;;;;;6237046;23;20330;-82
2021/03/22 02:24:05;;;;;;;0.60;0.60;;;1.50;99.90;;;;;;6240931;23;20163;-82
2021/03/22 02:26:54;;;;;;;0.60;0.60;;;1.60;99.90;;;;;;6240755;23;20617;-82
2021/03/22 02:29:45;;;;;;;0.60;0.60;;;1.50;99.90;;;;;;6240712;23;20160;-82
2021/03/22 02:32:30;;;;;;;0.55;0.55;;;1.50;99.90;;;;;;6240168;23;20230;-82
2021/03/22 02:35:03;;;;;;;0.55;0.55;;;1.50;99.90;;;;;;6240205;23;20183;-81
2021/03/22 02:37:40;;;;;;;0.50;0.50;;;1.50;99.90;;;;;;6239992;23;20168;-82
2021/03/22 02:40:16;;;;;;;0.50;0.50;;;1.50;99.90;;;;;;6240498;23;20164;-82
2021/03/22 02:42:45;;;;;;;0.50;0.50;;;1.50;99.90;;;;;;6240107;23;20175;-81
2021/03/22 02:45:20;;;;;;;0.50;0.50;;;1.50;99.90;;;;;;6239964;23;20230;-82
2021/03/22 02:47:46;;;;;;;0.52;0.52;;;1.40;99.90;;;;;;6240505;23;20170;-82
2021/03/22 02:50:17;;;;;;;0.50;0.50;;;1.50;99.90;;;;;;6239590;23;20241;-82
2021/03/22 02:53:08;;;;;;;0.50;0.50;;;1.50;99.90;;;;;;6239374;23;20675;-82
2021/03/22 02:55:43;;;;;;;0.50;0.50;;;1.50;99.90;;;;;;6240530;23;20191;-81
2021/03/22 02:58:13;;;;;;;0.60;0.60;;;1.60;99.90;;;;;;6239820;23;20166;-82
2021/03/22 03:00:42;;;;;;;0.50;0.50;;;1.60;99.90;;;;;;6239952;23;20187;-82
2021/03/22 03:03:12;;;;;;;0.50;0.50;;;1.60;99.90;;;;;;6239833;23;20492;-82
2021/03/22 03:05:39;;;;;;;0.50;0.50;;;1.60;99.90;;;;;;6239686;23;20177;-82
2021/03/22 03:08:10;;;;;;;0.50;0.50;;;1.60;99.90;;;;;;6239977;23;20184;-82
2021/03/22 03:10:36;;;;;;;0.60;0.60;;;1.60;99.90;;;;;;6240244;23;20168;-81
2021/03/22 03:13:03;;;;;;;0.50;0.50;;;1.60;99.90;;;;;;6240347;23;20480;-82
2021/03/22 03:15:29;;;;;;;0.50;0.50;;;1.60;99.90;;;;;;6239775;23;20191;-81
2021/03/22 03:17:56;;;;;;;0.50;0.50;;;1.50;99.90;;;;;;6239402;23;20645;-81
2021/03/22 03:20:30;;;;;;;0.50;0.50;;;1.50;99.90;;;;;;6239825;23;20198;-81
2021/03/22 03:22:58;;;;;;;0.52;0.52;;;1.50;99.90;;;;;;6239820;23;20187;-82
2021/03/22 03:25:25;;;;;;;0.60;0.60;;;1.50;99.90;;;;;;6239638;23;20176;-82
2021/03/22 03:27:52;;;;;;;0.60;0.60;;;1.50;99.90;;;;;;6239867;23;20168;-82
2021/03/22 03:30:22;;;;;;;0.50;0.50;;;1.80;99.90;;;;;;6240426;23;20182;-82
2021/03/22 03:32:48;;;;;;;0.60;0.60;;;1.40;99.90;;;;;;6240581;22;20183;-82
2021/03/22 03:35:17;;;;;;;0.50;0.50;;;1.30;99.90;;;;;;6239675;23;20191;-82
2021/03/22 03:37:43;;;;;;;0.60;0.60;;;1.30;99.90;;;;;;6239765;23;20180;-83
2021/03/22 03:40:14;;;;;;;0.60;0.60;;;1.30;99.90;;;;;;6239225;23;20180;-82
2021/03/22 03:42:40;;;;;;;0.50;0.50;;;1.30;99.90;;;;;;6239609;23;20627;-81
2021/03/22 03:45:09;;;;;;;0.60;0.60;;;1.30;99.90;;;;;;6239477;23;20652;-82
2021/03/22 03:47:36;;;;;;;0.57;0.57;;;1.20;99.90;;;;;;6239705;23;20176;-81
2021/03/22 03:50:06;;;;;;;0.50;0.50;;;1.20;99.90;;;;;;6239754;23;20706;-82
2021/03/22 03:52:32;;;;;;;0.50;0.50;;;1.20;99.90;;;;;;6239589;23;20199;-82
2021/03/22 03:54:58;;;;;;;0.50;0.50;;;1.20;99.90;;;;;;6239485;23;20195;-82
2021/03/22 03:57:25;;;;;;;0.50;0.50;;;1.20;99.90;;;;;;6239437;23;20180;-82
2021/03/22 03:59:51;;;;;;;0.60;0.60;;;1.20;99.90;;;;;;6239538;23;20535;-82
2021/03/22 04:02:17;;;;;;;0.50;0.50;;;1.20;99.90;;;;;;6240289;23;20544;-82
2021/03/22 04:04:43;;;;;;;0.52;0.52;;;1.20;99.90;;;;;;6240080;23;20180;-82
2021/03/22 04:07:10;;;;;;;0.50;0.50;;;1.30;99.90;;;;;;6241486;23;20180;-82
2021/03/22 04:09:36;;;;;;;0.60;0.60;;;1.20;99.90;;;;;;6241934;23;20191;-82
2021/03/22 04:12:03;;;;;;;0.50;0.50;;;1.20;99.90;;;;;;6242338;23;20175;-82
2021/03/22 04:14:30;;;;;;;0.50;0.50;;;1.20;99.90;;;;;;6241464;23;20175;-82
2021/03/22 04:16:56;;;;;;;0.50;0.50;;;1.20;99.90;;;;;;6241499;23;20203;-82
2021/03/22 04:19:23;;;;;;;0.50;0.50;;;1.20;99.90;;;;;;6241586;23;20175;-82
2021/03/22 04:21:50;;;;;;;0.50;0.50;;;1.20;99.90;;;;;;6242157;23;20544;-82
2021/03/22 04:24:18;;;;;;;0.50;0.50;;;1.20;99.90;;;;;;6241673;23;20234;-82
2021/03/22 04:26:45;;;;;;;0.50;0.50;;;1.10;99.90;;;;;;6241372;23;20511;-81
2021/03/22 04:29:11;;;;;;;0.50;0.50;;;1.10;99.90;;;;;;6241306;23;20400;-81
2021/03/22 04:31:38;;;;;;;0.50;0.50;;;1.10;99.90;;;;;;6241479;23;20281;-81
2021/03/22 04:34:04;;;;;;;0.50;0.50;;;1.00;99.90;;;;;;6241915;23;20187;-81
2021/03/22 04:36:34;;;;;;;0.50;0.50;;;1.10;99.90;;;;;;6241361;23;20196;-81
2021/03/22 04:39:01;;;;;;;0.50;0.50;;;1.10;99.90;;;;;;6241555;22;20179;-82
2021/03/22 04:41:28;;;;;;;0.50;0.50;;;1.00;99.90;;;;;;6241250;23;20187;-82
2021/03/22 04:43:54;;;;;;;0.50;0.50;;;1.00;99.90;;;;;;6241033;23;20625;-82
2021/03/22 04:46:21;;;;;;;0.50;0.50;;;1.00;99.90;;;;;;6241759;23;20171;-82
2021/03/22 04:48:48;;;;;;;0.50;0.50;;;1.00;99.90;;;;;;6241714;23;20628;-82
2021/03/22 04:51:14;;;;;;;0.50;0.50;;;1.00;99.90;;;;;;6240593;23;20679;-83
2021/03/22 04:53:40;;;;;;;0.60;0.60;;;1.10;99.90;;;;;;6249431;23;20332;-83
2021/03/22 04:56:08;;;;;;;0.50;0.50;;;1.00;99.90;;;;;;6241949;23;20192;-82
2021/03/22 04:58:34;;;;;;;0.50;0.50;;;1.00;99.90;;;;;;6241685;23;20182;-81
2021/03/22 05:01:01;;;;;;;0.50;0.50;;;1.00;99.90;;;;;;6241358;23;20180;-82
2021/03/22 05:03:27;;;;;;;0.50;0.50;;;1.00;99.90;;;;;;6240624;23;20759;-82
2021/03/22 05:05:54;;;;;;;0.50;0.50;;;1.10;99.90;;;;;;6240696;23;20179;-82
2021/03/22 05:08:23;;;;;;;0.50;0.50;;;1.10;99.90;;;;;;6241623;23;20479;-82
2021/03/22 05:10:51;;;;;;;0.50;0.50;;;1.10;99.90;;;;;;6241136;23;20182;-82
2021/03/22 05:13:19;;;;;;;0.50;0.50;;;1.10;99.90;;;;;;6241616;23;20203;-82
2021/03/22 05:15:45;;;;;;;0.50;0.50;;;1.20;99.90;;;;;;6241013;23;20203;-82
2021/03/22 05:18:13;;;;;;;0.50;0.50;;;1.10;99.90;;;;;;6240785;23;20176;-81
2021/03/22 05:20:42;;;;;;;0.50;0.50;;;1.20;99.90;;;;;;6240905;23;20176;-82
2021/03/22 05:23:14;;;;;;;0.50;0.50;;;1.20;99.90;;;;;;6240482;23;20695;-82
2021/03/22 05:25:40;;;;;;;0.50;0.50;;;1.20;99.90;;;;;;6240836;23;20164;-82
2021/03/22 05:28:09;;;;;;;0.50;0.50;;;1.30;99.90;;;;;;6241054;23;20183;-82
2021/03/22 05:30:37;;;;;;;0.50;0.50;;;1.30;99.90;;;;;;6241161;23;20246;-82
2021/03/22 05:33:07;;;;;;;0.50;0.50;;;1.30;99.90;;;;;;6241404;23;20176;-82
2021/03/22 05:35:33;;;;;;;0.50;0.50;;;1.40;99.90;;;;;;6241167;23;20195;-83
2021/03/22 05:38:00;;;;;;;0.50;0.50;;;1.40;99.90;;;;;;6240649;23;20176;-82
2021/03/22 05:40:32;;;;;;;0.50;0.50;;;1.40;99.90;;;;;;6240537;23;20195;-81
2021/03/22 05:43:06;;;;;;;0.50;0.50;;;1.50;99.90;;;;;;6240479;23;20164;-83
2021/03/22 05:45:43;;;;;;;0.50;0.50;;;1.50;99.90;;;;;;6241214;23;20171;-83
2021/03/22 05:48:43;;;;;;;0.50;0.50;;;1.60;99.90;;;;;;6240263;23;20170;-82
2021/03/22 05:51:51;;;;;;;0.50;0.50;;;1.60;99.90;;;;;;6240589;22;20203;-82
2021/03/22 05:54:36;;;;;;;0.50;0.50;;;1.60;99.90;;;;;;6184515;23;20186;-82
2021/03/22 05:57:14;;;;;;;0.50;0.50;;;1.70;99.90;;;;;;6241746;23;20542;-82
2021/03/22 05:59:46;;;;;;;0.50;0.50;;;1.70;99.90;;;;;;6240501;23;20191;-82
2021/03/22 06:02:17;;;;;;;0.50;0.50;;;1.80;99.90;;;;;;6240533;23;20186;-81
2021/03/22 06:04:49;;;;;;;0.50;0.50;;;1.80;99.90;;;;;;6240283;23;20168;-82
2021/03/22 06:07:19;;;;;;;0.50;0.50;;;1.80;99.90;;;;;;6240645;23;20191;-82
2021/03/22 06:09:55;;;;;;;0.50;0.50;;;1.90;99.90;;;;;;6240843;23;20176;-80
2021/03/22 06:12:39;;;;;;;0.50;0.50;;;1.90;99.90;;;;;;6240893;23;20163;-82
2021/03/22 06:15:17;;;;;;;0.50;0.50;;;1.90;99.90;;;;;;6240803;23;20159;-81
2021/03/22 06:17:50;;;;;;;0.50;0.50;;;2.00;99.90;;;;;;6240183;23;20153;-82
2021/03/22 06:20:21;;;;;;;0.50;0.50;;;2.00;99.90;;;;;;6241358;23;20164;-84
2021/03/22 06:22:50;;;;;;;0.50;0.50;;;2.10;99.90;;;;;;6241570;23;20160;-83
2021/03/22 06:25:19;;;;;;;0.50;0.50;;;2.20;99.90;;;;;;6241785;23;20179;-83
2021/03/22 06:27:51;;;;;;;0.50;0.50;;;2.20;99.90;;;;;;6241057;23;20181;-84
2021/03/22 06:30:21;;;;;;;0.50;0.50;;;2.20;99.90;;;;;;6241617;23;20589;-83
2021/03/22 06:32:50;;;;;;;0.50;0.50;;;2.20;99.90;;;;;;6240744;23;20650;-82
2021/03/22 06:35:20;;;;;;;0.50;0.50;;;2.20;99.90;;;;;;6241101;23;20269;-82
2021/03/22 06:37:47;;;;;;;0.50;0.50;;;2.20;99.90;;;;;;6240836;23;20262;-83
2021/03/22 06:40:20;;;;;;;0.50;0.50;;;2.20;99.90;;;;;;6245366;23;20183;-82
2021/03/22 06:45:31;;;;;;;0.50;0.50;;;2.30;99.90;;;;;;6094118;23;20391;-83
2021/03/22 06:48:28;;;;;;;0.50;0.50;;;2.20;99.90;;;;;;6095389;23;20467;-83
2021/03/22 06:51:21;;;;;;;0.50;0.50;;;2.30;99.90;;;;;;6110867;23;20203;-84
2021/03/22 06:53:51;;;;;;;0.50;0.50;;;2.40;99.90;;;;;;6109750;22;20190;-83
2021/03/22 06:56:27;;;;;;;0.50;0.50;;;3.80;99.90;;;;;;6113450;23;20199;-85
2021/03/22 06:59:13;;;;;;;0.50;0.50;;;4.20;99.90;;;;;;6107338;22;20254;-82
2021/03/22 07:01:43;;;;;;;0.50;0.50;;;2.80;99.90;;;;;;6103612;22;20195;-83
2021/03/22 07:04:21;;;;;;;0.50;0.50;;;4.10;99.90;;;;;;6097691;23;20183;-83
2021/03/22 07:07:10;;;;;;;0.50;0.50;;;2.20;99.90;;;;;;6092212;23;20229;-84
2021/03/22 07:09:40;;;;;;;0.50;0.50;;;2.30;99.90;;;;;;6091762;23;20576;-81
2021/03/22 07:12:09;;;;;;;0.50;0.50;;;2.30;99.90;;;;;;6088400;23;20222;-82
2021/03/22 07:14:36;;;;;;;0.50;0.50;;;2.40;99.90;;;;;;6088564;23;20179;-82
2021/03/22 07:17:05;;;;;;;0.50;0.50;;;2.40;99.90;;;;;;6088510;23;20542;-83
2021/03/22 07:19:32;;;;;;;0.50;0.50;;;2.50;99.90;;;;;;6088233;23;20190;-82
2021/03/22 07:22:00;;;;;;;0.50;0.50;;;2.50;99.90;;;;;;6088027;23;20636;-83
2021/03/22 07:24:35;;;;;;;0.50;0.50;;;2.60;99.90;;;;;;6091544;23;20241;-82
2021/03/22 07:27:18;;;;;;;0.50;0.50;;;2.60;99.90;;;;;;6094264;23;20158;-83
2021/03/22 07:30:17;;;;;;;0.50;0.50;;;2.60;99.90;;;;;;6095180;23;20550;-83
2021/03/22 07:32:50;;;;;;;0.50;0.50;;;2.80;99.90;;;;;;6094568;23;20175;-83
2021/03/22 07:35:36;;;;;;;0.50;0.50;;;2.70;99.90;;;;;;6111712;23;20195;-84
2021/03/22 07:38:14;;;;;;;0.50;0.50;;;4.90;99.90;;;;;;6097654;23;20163;-83
2021/03/22 07:40:50;;;;;;;0.50;0.50;;;2.60;99.90;;;;;;6105276;23;20230;-83
2021/03/22 07:43:38;;;;;;;0.50;0.50;;;3.00;99.90;;;;;;6100073;23;20167;-83
2021/03/22 07:46:12;;;;;;;0.60;0.60;;;2.40;99.90;;;;;;6089011;23;20515;-83
2021/03/22 07:49:11;;;;;;;0.50;0.50;;;3.00;99.90;;;;;;6092485;23;20634;-83
2021/03/22 07:52:07;;;;;;;0.50;0.50;;;4.80;99.90;;;;;;6130491;23;20206;-84
2021/03/22 07:57:39;;;;;;;0.60;0.60;;;3.30;99.90;;;;;;6093199;22;20216;-86
2021/03/22 08:00:28;;;;;;;0.50;0.50;;;2.60;99.90;;;;;;6135725;23;20182;-87
2021/03/22 08:03:21;;;;;;;0.50;0.50;;;3.10;99.90;;;;;;6142281;23;20176;-84
2021/03/22 08:06:18;;;;;;;0.60;0.60;;;5.00;99.90;;;;;;6144465;23;20181;-84
2021/03/22 08:08:54;;;;;;;0.57;0.57;;;2.90;99.90;;;;;;6146000;23;20206;-84
2021/03/22 08:11:37;;;;;;;0.50;0.50;;;3.00;99.90;;;;;;6147582;23;20149;-84
2021/03/22 08:14:14;;;;;;;0.60;0.60;;;4.70;99.90;;;;;;6146537;23;20165;-85
2021/03/22 08:17:08;;;;;;;0.50;0.50;;;4.30;99.90;;;;;;6180641;22;20211;-82
2021/03/22 08:19:44;;;;;;;0.60;0.60;;;4.80;99.90;;;;;;6266956;23;20201;-82
2021/03/22 08:22:20;;;;;;;0.60;0.60;;;4.50;99.90;;;;;;6267908;22;20147;-83
2021/03/22 08:25:03;;;;;;;0.60;0.60;;;3.90;99.90;;;;;;6164967;22;20217;-81
2021/03/22 08:27:35;;;;;;;0.50;0.50;;;3.80;99.90;;;;;;6090596;23;20175;-81
2021/03/22 08:30:21;;;;;;;0.60;0.60;;;3.70;99.90;;;;;;6090626;23;20501;-81
2021/03/22 08:32:57;;;;;;;0.50;0.50;;;3.80;99.90;;;;;;6098239;23;20376;-82
2021/03/22 08:35:31;;;;;;;0.60;0.60;;;4.90;99.90;;;;;;6100273;23;20190;-82
2021/03/22 08:38:00;;;;;;;0.50;0.50;;;3.80;99.90;;;;;;6110868;23;20171;-83
2021/03/22 08:40:43;;;;;;;0.60;0.60;;;4.00;99.90;;;;;;6105381;23;20266;-84
2021/03/22 08:43:17;;;;;;;0.50;0.50;;;3.20;99.90;;;;;;6104672;23;20223;-80
2021/03/22 08:46:04;;;;;;;0.60;0.60;;;4.30;99.90;;;;;;6102171;23;20167;-85
2021/03/22 08:48:30;;;;;;;0.50;0.50;;;6.10;99.90;;;;;;6097633;23;20156;-81
2021/03/22 08:51:00;;;;;;;0.60;0.60;;;4.50;99.90;;;;;;6105698;22;20258;-81
2021/03/22 08:53:38;;;;;;;0.60;0.60;;;4.30;99.90;;;;;;6098865;23;20210;-82
2021/03/22 08:56:21;;;;;;;0.60;0.60;;;4.40;99.90;;;;;;6096379;23;20278;-87
2021/03/22 08:58:48;;;;;;;0.57;0.57;;;3.80;99.90;;;;;;6100278;23;20182;-85
2021/03/22 09:01:23;;;;;;;0.57;0.57;;;4.70;99.90;;;;;;6089863;23;20246;-84
2021/03/22 09:03:52;;;;;;;0.50;0.50;;;5.30;99.90;;;;;;6089809;23;20250;-86
2021/03/22 09:06:23;;;;;;;0.60;0.60;;;3.50;99.90;;;;;;6092370;23;20175;-83
2021/03/22 09:09:22;;;;;;;0.52;0.52;;;4.20;99.90;;;;;;6100377;22;20215;-85
2021/03/22 09:11:56;;;;;;;0.60;0.60;;;4.60;99.90;;;;;;6098754;23;20172;-85
2021/03/22 09:17:34;;;;;;;0.50;0.50;;;6.30;99.90;;;;;;6101494;23;20607;-82
2021/03/22 09:20:24;;;;;;;0.50;0.50;;;4.10;99.90;;;;;;6109709;23;20235;-82
2021/03/22 09:23:00;;;;;;;0.50;0.50;;;4.90;99.90;;;;;;6118599;23;20262;-83
2021/03/22 09:25:56;;;;;;;0.60;0.60;;;4.00;99.90;;;;;;6119281;23;20171;-83
2021/03/22 09:28:47;;;;;;;0.60;0.60;;;4.80;99.90;;;;;;6116913;23;20175;-83
2021/03/22 09:31:51;;;;;;;0.60;0.60;;;6.80;99.90;;;;;;6118859;23;20179;-83
2021/03/22 09:34:57;;;;;;;0.60;0.60;;;5.30;99.90;;;;;;6119046;23;20226;-83
2021/03/22 09:37:59;;;;;;;0.57;0.57;;;6.40;99.90;;;;;;6120122;23;20183;-83
2021/03/22 09:40:53;;;;;;;0.60;0.60;;;5.30;99.90;;;;;;6004116;23;20181;-83
2021/03/22 09:43:40;;;;;;;0.60;0.60;;;5.30;99.90;;;;;;6119285;23;20180;-83
2021/03/22 09:46:36;;;;;;;0.60;0.60;;;5.90;99.90;;;;;;6119095;23;20152;-83
2021/03/22 09:49:23;;;;;;;0.60;0.60;;;6.80;99.90;;;;;;6119715;23;20179;-83
2021/03/22 09:52:03;;;;;;;0.57;0.57;;;4.90;99.90;;;;;;6095505;23;20203;-82
2021/03/22 09:54:52;;;;;;;0.60;0.60;;;5.60;99.90;;;;;;6091591;23;20176;-83
2021/03/22 09:57:43;;;;;;;0.52;0.52;;;4.30;99.90;;;;;;6091528;23;20195;-82
2021/03/22 10:00:31;;;;;;;0.60;0.60;;;6.00;99.90;;;;;;6091774;23;20163;-83
2021/03/22 10:03:01;;;;;;;0.60;0.60;;;6.50;99.90;;;;;;6090979;23;20186;-84
2021/03/22 10:08:27;;;;;;;0.50;0.50;;;5.90;99.90;;;;;;6118696;23;20209;-82
2021/03/22 10:10:56;;;;;;;0.60;0.60;;;7.70;99.90;;;;;;6102351;23;20187;-83
2021/03/22 10:13:26;;;;;;;0.60;0.60;;;5.80;99.90;;;;;;6093864;23;20179;-82
2021/03/22 10:15:58;;;;;;;0.57;0.57;;;6.00;99.90;;;;;;6092007;23;20191;-81
2021/03/22 10:18:32;;;;;;;0.60;0.60;;;6.00;99.90;;;;;;6099768;23;20221;-81
2021/03/22 10:21:10;;;;;;;0.60;0.60;;;6.30;99.90;;;;;;6097203;23;20169;-81
2021/03/22 10:23:46;;;;;;;0.60;0.60;;;6.40;99.90;;;;;;6100071;23;20230;-81
2021/03/22 10:26:16;;;;;;;0.60;0.60;;;6.20;99.90;;;;;;6087629;23;20183;-81
2021/03/22 10:28:42;;;;;;;0.60;0.60;;;6.50;99.90;;;;;;6087370;23;20194;-80
2021/03/22 10:31:18;;;;;;;0.60;0.60;;;6.40;99.90;;;;;;6086796;23;20685;-81
2021/03/22 10:33:51;;;;;;;0.60;0.60;;;6.30;99.90;;;;;;6086799;23;20176;-81
2021/03/22 10:36:27;;;;;;;0.60;0.60;;;6.50;99.90;;;;;;6087991;23;20488;-81
2021/03/22 10:38:55;;;;;;;0.60;0.60;;;6.70;99.90;;;;;;6088334;23;20185;-81
2021/03/22 10:41:27;;;;;;;0.60;0.60;;;6.70;99.90;;;;;;6092583;23;20187;-81
2021/03/22 10:43:58;;;;;;;0.60;0.60;;;6.70;99.90;;;;;;6100676;23;20171;-82
2021/03/22 10:46:27;;;;;;;0.60;0.60;;;8.20;99.90;;;;;;6093556;23;20242;-84
2021/03/22 10:49:03;;;;;;;0.60;0.60;;;7.00;99.90;;;;;;6083346;23;20842;-84
2021/03/22 10:51:38;;;;;;;0.60;0.60;;;7.20;99.90;;;;;;6084054;23;20520;-83
2021/03/22 10:54:09;;;;;;;0.60;0.60;;;7.30;99.90;;;;;;6090780;23;20185;-84
2021/03/22 10:56:41;;;;;;;0.60;0.60;;;7.20;99.90;;;;;;6090807;23;20184;-83
2021/03/22 10:59:16;;;;;;;0.60;0.60;;;7.10;99.90;;;;;;6092191;23;20168;-84
2021/03/22 11:01:43;;;;;;;0.60;0.60;;;7.30;99.90;;;;;;6098058;23;20174;-83
2021/03/22 11:04:16;;;;;;;0.60;0.60;;;7.40;99.90;;;;;;6103230;23;20263;-84
2021/03/22 11:06:46;;;;;;;0.55;0.55;;;7.50;99.90;;;;;;6096619;23;20199;-85
2021/03/22 11:09:22;;;;;;;0.60;0.60;;;7.70;99.90;;;;;;6091050;23;20179;-84
2021/03/22 11:11:52;;;;;;;0.60;0.60;;;7.90;99.90;;;;;;6092537;23;20246;-83
2021/03/22 11:14:24;;;;;;;0.60;0.60;;;8.00;99.90;;;;;;6102586;23;20218;-84
2021/03/22 11:16:55;;;;;;;0.60;0.60;;;8.10;99.90;;;;;;6100077;23;20167;-84
2021/03/22 11:19:35;;;;;;;0.60;0.60;;;8.20;99.90;;;;;;6089326;23;20195;-83
2021/03/22 11:22:14;;;;;;;0.60;0.60;;;8.40;99.90;;;;;;6089597;23;20171;-85
2021/03/22 11:24:46;;;;;;;0.60;0.60;;;8.40;99.90;;;;;;6092489;23;20211;-84
2021/03/22 11:27:13;;;;;;;0.60;0.60;;;10.00;99.90;;;;;;6089178;23;20175;-85
2021/03/22 11:29:58;;;;;;;0.60;0.60;;;8.00;99.90;;;;;;6093738;23;20209;-85
2021/03/22 11:32:27;;;;;;;0.60;0.60;;;8.90;99.90;;;;;;6091608;23;20170;-85
2021/03/22 11:34:55;;;;;;;0.60;0.60;;;8.70;99.90;;;;;;6094148;23;20187;-84
2021/03/22 11:37:24;;;;;;;0.60;0.60;;;8.80;99.90;;;;;;6091969;23;20199;-84
2021/03/22 11:40:03;;;;;;;0.60;0.60;;;9.10;99.90;;;;;;6093477;23;20179;-84
2021/03/22 11:42:33;;;;;;;0.57;0.57;;;8.50;99.90;;;;;;6092845;23;20230;-85
2021/03/22 11:45:00;;;;;;;0.60;0.60;;;9.20;99.90;;;;;;6095343;23;20175;-85
2021/03/22 11:51:13;;;;;;;0.60;0.60;;;9.90;99.90;;;;;;6101349;23;20203;-86
2021/03/22 11:54:01;;;;;;;0.60;0.60;;;11.20;99.90;;;;;;6100962;23;20183;-85
2021/03/22 11:56:30;;;;;;;0.60;0.60;;;11.10;99.90;;;;;;6097430;23;20444;-85
2021/03/22 11:59:19;;;;;;;0.60;0.60;;;10.90;99.90;;;;;;6099912;23;20616;-85
2021/03/22 12:02:00;;;;;;;0.60;0.60;;;11.00;99.90;;;;;;6087144;23;20171;-85
2021/03/22 12:04:28;;;;;;;0.60;0.60;;;11.00;99.90;;;;;;6087260;23;20190;-85
2021/03/22 12:06:58;;;;;;;0.60;0.60;;;9.60;99.90;;;;;;6087132;23;20207;-85
2021/03/22 12:09:25;;;;;;;0.60;0.60;;;9.90;99.90;;;;;;6084987;23;20190;-85
2021/03/22 12:11:53;;;;;;;0.60;0.60;;;10.10;99.90;;;;;;6088296;23;20666;-85
2021/03/22 12:14:19;;;;;;;0.60;0.60;;;10.60;99.90;;;;;;6090226;23;20183;-83
2021/03/22 12:16:47;;;;;;;0.60;0.60;;;10.20;99.90;;;;;;6087800;23;20272;-83
2021/03/22 12:19:19;;;;;;;0.60;0.60;;;10.00;99.90;;;;;;6087660;23;20273;-84
2021/03/22 12:21:46;;;;;;;0.60;0.60;;;10.30;99.90;;;;;;6087575;23;20159;-84
2021/03/22 12:24:14;;;;;;;0.60;0.60;;;9.90;99.90;;;;;;6087930;23;20225;-83
2021/03/22 12:26:41;;;;;;;0.60;0.60;;;10.40;99.90;;;;;;6088299;23;20651;-84
2021/03/22 12:29:07;;;;;;;0.60;0.60;;;10.90;99.90;;;;;;6089308;23;20509;-83
2021/03/22 12:31:35;;;;;;;0.60;0.60;;;11.20;99.90;;;;;;6089010;23;20393;-83
2021/03/22 12:34:05;;;;;;;0.60;0.60;;;11.30;99.90;;;;;;6088798;23;20207;-84
2021/03/22 12:36:34;;;;;;;0.50;0.50;;;11.50;99.90;;;;;;6088835;23;20668;-83
2021/03/22 12:39:03;;;;;;;0.60;0.60;;;11.50;99.90;;;;;;6089529;23;20187;-85
2021/03/22 12:41:31;;;;;;;0.60;0.60;;;11.40;99.90;;;;;;6088196;23;20186;-83
2021/03/22 12:43:58;;;;;;;0.60;0.60;;;11.00;99.90;;;;;;6088886;23;20362;-83
2021/03/22 12:46:24;;;;;;;0.60;0.60;;;11.10;99.90;;;;;;6088876;23;20179;-85
2021/03/22 12:48:51;;;;;;;0.60;0.60;;;10.70;99.90;;;;;;6088972;23;20640;-85
2021/03/22 12:51:17;;;;;;;0.57;0.57;;;10.90;99.90;;;;;;6083686;23;20213;-86
2021/03/22 12:53:43;;;;;;;0.60;0.60;;;11.00;99.90;;;;;;6088487;23;20185;-85
2021/03/22 12:56:11;;;;;;;0.60;0.60;;;11.90;99.90;;;;;;6088441;23;20501;-86
2021/03/22 12:58:38;;;;;;;0.60;0.60;;;11.10;99.90;;;;;;6088456;23;20183;-85
2021/03/22 13:01:05;;;;;;;0.60;0.60;;;11.20;99.90;;;;;;6084374;23;20262;-84
2021/03/22 13:03:35;;;;;;;0.60;0.60;;;11.40;99.90;;;;;;6077505;23;20193;-85
2021/03/22 13:06:01;;;;;;;0.60;0.60;;;11.60;99.90;;;;;;6078811;23;20206;-85
2021/03/22 13:08:29;;;;;;;0.60;0.60;;;11.70;99.90;;;;;;6080387;23;20186;-84
2021/03/22 13:10:56;;;;;;;0.60;0.60;;;11.30;99.90;;;;;;6078747;23;20185;-84
2021/03/22 13:13:24;;;;;;;0.60;0.60;;;11.40;99.90;;;;;;6082276;23;20179;-85
2021/03/22 13:15:52;;;;;;;0.50;0.50;;;11.40;99.90;;;;;;6082398;23;20199;-85
2021/03/22 13:18:20;;;;;;;0.60;0.60;;;11.30;99.90;;;;;;6079767;23;20213;-83
2021/03/22 13:20:50;;;;;;;0.60;0.60;;;11.30;99.90;;;;;;6084368;23;20201;-84
2021/03/22 13:23:17;;;;;;;0.60;0.60;;;11.00;99.90;;;;;;6084426;23;20289;-83
2021/03/22 13:25:44;;;;;;;0.60;0.60;;;10.90;99.90;;;;;;6084183;23;20210;-83
2021/03/22 13:28:14;;;;;;;0.60;0.60;;;11.30;99.90;;;;;;6083312;23;20183;-83
2021/03/22 13:30:41;;;;;;;0.60;0.60;;;11.70;99.90;;;;;;6085910;23;20183;-82
2021/03/22 13:33:10;;;;;;;0.60;0.60;;;11.90;99.90;;;;;;6086158;23;20198;-82
2021/03/22 13:35:36;;;;;;;0.60;0.60;;;11.10;99.90;;;;;;6085896;23;20190;-82
2021/03/22 13:38:02;;;;;;;0.60;0.60;;;10.80;99.90;;;;;;6079801;23;20644;-82
2021/03/22 13:40:29;;;;;;;0.60;0.60;;;10.60;99.90;;;;;;6082694;23;20179;-81